sensor_id;sensor_type;location;lat;lon;timestamp;P1;durP1;ratioP1;P2;durP2;ratioP2
37273;SDS011;23161;51.250;5.554;2023-03-02T00:00:41;9.82;;;8.80;;
37273;SDS011;23161;51.250;5.554;2023-03-02T00:03:09;9.95;;;6.97;;
37273;SDS011;23161;51.250;5.554;2023-03-02T00:05:37;8.50;;;7.65;;
37273;SDS011;23161;51.250;5.554;2023-03-02T00:08:06;8.55;;;7.57;;
37273;SDS011;23161;51.250;5.554;2023-03-02T00:10:33;9.55;;;8.68;;
37273;SDS011;23161;51.250;5.554;2023-03-02T00:13:00;9.25;;;7.50;;
37273;SDS011;23161;51.250;5.554;2023-03-02T00:15:27;9.73;;;7.70;;
37273;SDS011;23161;51.250;5.554;2023-03-02T00:18:02;8.48;;;7.78;;
37273;SDS011;23161;51.250;5.554;2023-03-02T00:20:28;9.18;;;8.48;;
37273;SDS011;23161;51.250;5.554;2023-03-02T00:22:54;11.75;;;9.05;;
37273;SDS011;23161;51.250;5.554;2023-03-02T00:25:20;10.02;;;8.05;;
37273;SDS011;23161;51.250;5.554;2023-03-02T00:27:46;9.80;;;8.80;;
37273;SDS011;23161;51.250;5.554;2023-03-02T00:30:12;8.07;;;7.47;;
37273;SDS011;23161;51.250;5.554;2023-03-02T00:32:39;11.77;;;8.02;;
37273;SDS011;23161;51.250;5.554;2023-03-02T00:35:06;11.98;;;8.93;;
37273;SDS011;23161;51.250;5.554;2023-03-02T00:37:35;7.22;;;6.65;;
37273;SDS011;23161;51.250;5.554;2023-03-02T00:42:36;12.43;;;8.23;;
37273;SDS011;23161;51.250;5.554;2023-03-02T00:45:05;7.72;;;7.05;;
37273;SDS011;23161;51.250;5.554;2023-03-02T00:47:32;9.68;;;8.45;;
37273;SDS011;23161;51.250;5.554;2023-03-02T00:49:59;8.43;;;7.63;;
37273;SDS011;23161;51.250;5.554;2023-03-02T00:52:28;8.38;;;7.65;;
37273;SDS011;23161;51.250;5.554;2023-03-02T00:54:55;6.10;;;5.50;;
37273;SDS011;23161;51.250;5.554;2023-03-02T00:57:21;9.27;;;8.25;;
37273;SDS011;23161;51.250;5.554;2023-03-02T00:59:47;17.33;;;7.90;;
37273;SDS011;23161;51.250;5.554;2023-03-02T01:02:23;9.93;;;8.00;;
37273;SDS011;23161;51.250;5.554;2023-03-02T01:04:50;8.60;;;7.72;;
37273;SDS011;23161;51.250;5.554;2023-03-02T01:07:18;8.70;;;7.75;;
37273;SDS011;23161;51.250;5.554;2023-03-02T01:09:51;10.45;;;7.50;;
37273;SDS011;23161;51.250;5.554;2023-03-02T01:12:17;8.63;;;7.85;;
37273;SDS011;23161;51.250;5.554;2023-03-02T01:14:44;9.75;;;8.85;;
37273;SDS011;23161;51.250;5.554;2023-03-02T01:17:11;8.00;;;7.20;;
37273;SDS011;23161;51.250;5.554;2023-03-02T01:19:37;9.00;;;7.82;;
37273;SDS011;23161;51.250;5.554;2023-03-02T01:22:04;11.65;;;8.50;;
37273;SDS011;23161;51.250;5.554;2023-03-02T01:24:30;7.82;;;7.05;;
37273;SDS011;23161;51.250;5.554;2023-03-02T01:26:56;8.27;;;7.55;;
37273;SDS011;23161;51.250;5.554;2023-03-02T01:29:22;8.88;;;7.93;;
37273;SDS011;23161;51.250;5.554;2023-03-02T01:31:48;8.32;;;7.22;;
37273;SDS011;23161;51.250;5.554;2023-03-02T01:34:14;12.85;;;9.05;;
37273;SDS011;23161;51.250;5.554;2023-03-02T01:36:40;8.63;;;7.85;;
37273;SDS011;23161;51.250;5.554;2023-03-02T01:39:10;8.25;;;6.70;;
37273;SDS011;23161;51.250;5.554;2023-03-02T01:41:40;8.23;;;7.63;;
37273;SDS011;23161;51.250;5.554;2023-03-02T01:44:30;8.23;;;7.53;;
37273;SDS011;23161;51.250;5.554;2023-03-02T01:47:03;7.63;;;6.97;;
37273;SDS011;23161;51.250;5.554;2023-03-02T01:49:49;7.32;;;6.63;;
37273;SDS011;23161;51.250;5.554;2023-03-02T01:52:22;15.15;;;8.38;;
37273;SDS011;23161;51.250;5.554;2023-03-02T01:54:49;10.30;;;9.05;;
37273;SDS011;23161;51.250;5.554;2023-03-02T01:57:21;6.88;;;6.25;;
37273;SDS011;23161;51.250;5.554;2023-03-02T01:59:51;9.98;;;9.02;;
37273;SDS011;23161;51.250;5.554;2023-03-02T02:04:47;8.55;;;7.75;;
37273;SDS011;23161;51.250;5.554;2023-03-02T02:07:14;10.85;;;8.93;;
37273;SDS011;23161;51.250;5.554;2023-03-02T02:09:45;9.50;;;8.30;;
37273;SDS011;23161;51.250;5.554;2023-03-02T02:12:14;14.95;;;9.25;;
37273;SDS011;23161;51.250;5.554;2023-03-02T02:14:43;12.90;;;8.85;;
37273;SDS011;23161;51.250;5.554;2023-03-02T02:17:10;12.32;;;8.20;;
37273;SDS011;23161;51.250;5.554;2023-03-02T02:22:09;10.07;;;9.02;;
37273;SDS011;23161;51.250;5.554;2023-03-02T02:27:05;8.13;;;7.45;;
37273;SDS011;23161;51.250;5.554;2023-03-02T02:29:34;11.13;;;8.88;;
37273;SDS011;23161;51.250;5.554;2023-03-02T02:32:23;10.73;;;7.32;;
37273;SDS011;23161;51.250;5.554;2023-03-02T02:37:56;9.27;;;8.38;;
37273;SDS011;23161;51.250;5.554;2023-03-02T02:43:15;9.73;;;8.88;;
37273;SDS011;23161;51.250;5.554;2023-03-02T02:45:43;12.88;;;9.85;;
37273;SDS011;23161;51.250;5.554;2023-03-02T02:48:14;7.65;;;6.95;;
37273;SDS011;23161;51.250;5.554;2023-03-02T02:50:42;9.02;;;8.23;;
37273;SDS011;23161;51.250;5.554;2023-03-02T02:53:17;9.55;;;8.60;;
37273;SDS011;23161;51.250;5.554;2023-03-02T02:55:46;10.10;;;9.02;;
37273;SDS011;23161;51.250;5.554;2023-03-02T02:58:33;9.18;;;8.27;;
37273;SDS011;23161;51.250;5.554;2023-03-02T03:01:04;11.30;;;9.75;;
37273;SDS011;23161;51.250;5.554;2023-03-02T03:06:06;10.77;;;9.00;;
37273;SDS011;23161;51.250;5.554;2023-03-02T03:08:48;13.88;;;11.27;;
37273;SDS011;23161;51.250;5.554;2023-03-02T03:11:33;9.32;;;8.45;;
37273;SDS011;23161;51.250;5.554;2023-03-02T03:14:07;11.10;;;9.23;;
37273;SDS011;23161;51.250;5.554;2023-03-02T03:16:38;10.85;;;9.77;;
37273;SDS011;23161;51.250;5.554;2023-03-02T03:19:08;10.50;;;9.27;;
37273;SDS011;23161;51.250;5.554;2023-03-02T03:21:47;12.82;;;9.95;;
37273;SDS011;23161;51.250;5.554;2023-03-02T03:24:15;13.98;;;10.15;;
37273;SDS011;23161;51.250;5.554;2023-03-02T03:26:42;10.80;;;9.80;;
37273;SDS011;23161;51.250;5.554;2023-03-02T03:29:08;12.80;;;11.45;;
37273;SDS011;23161;51.250;5.554;2023-03-02T03:31:35;11.75;;;9.98;;
37273;SDS011;23161;51.250;5.554;2023-03-02T03:34:02;11.07;;;9.05;;
37273;SDS011;23161;51.250;5.554;2023-03-02T03:36:32;11.45;;;10.25;;
37273;SDS011;23161;51.250;5.554;2023-03-02T03:39:00;9.65;;;8.68;;
37273;SDS011;23161;51.250;5.554;2023-03-02T03:41:27;8.25;;;7.43;;
37273;SDS011;23161;51.250;5.554;2023-03-02T03:43:54;9.63;;;8.80;;
37273;SDS011;23161;51.250;5.554;2023-03-02T03:46:20;14.15;;;11.05;;
37273;SDS011;23161;51.250;5.554;2023-03-02T03:48:46;10.10;;;9.18;;
37273;SDS011;23161;51.250;5.554;2023-03-02T03:51:12;9.77;;;8.90;;
37273;SDS011;23161;51.250;5.554;2023-03-02T03:53:38;12.35;;;9.80;;
37273;SDS011;23161;51.250;5.554;2023-03-02T03:56:05;17.98;;;9.45;;
37273;SDS011;23161;51.250;5.554;2023-03-02T03:58:31;11.48;;;8.38;;
37273;SDS011;23161;51.250;5.554;2023-03-02T04:00:57;12.13;;;10.13;;
37273;SDS011;23161;51.250;5.554;2023-03-02T04:03:24;9.15;;;8.35;;
37273;SDS011;23161;51.250;5.554;2023-03-02T04:05:50;10.50;;;9.20;;
37273;SDS011;23161;51.250;5.554;2023-03-02T04:08:17;12.75;;;11.07;;
37273;SDS011;23161;51.250;5.554;2023-03-02T04:10:43;11.32;;;10.15;;
37273;SDS011;23161;51.250;5.554;2023-03-02T04:13:09;11.07;;;10.02;;
37273;SDS011;23161;51.250;5.554;2023-03-02T04:15:36;10.30;;;9.20;;
37273;SDS011;23161;51.250;5.554;2023-03-02T04:18:02;12.23;;;10.98;;
37273;SDS011;23161;51.250;5.554;2023-03-02T04:20:30;9.82;;;8.95;;
37273;SDS011;23161;51.250;5.554;2023-03-02T04:22:56;15.30;;;11.05;;
37273;SDS011;23161;51.250;5.554;2023-03-02T04:25:24;11.85;;;10.73;;
37273;SDS011;23161;51.250;5.554;2023-03-02T04:27:56;13.07;;;11.82;;
37273;SDS011;23161;51.250;5.554;2023-03-02T04:30:26;11.85;;;10.25;;
37273;SDS011;23161;51.250;5.554;2023-03-02T04:32:52;11.23;;;8.85;;
37273;SDS011;23161;51.250;5.554;2023-03-02T04:35:20;9.68;;;8.77;;
37273;SDS011;23161;51.250;5.554;2023-03-02T04:37:46;11.85;;;10.43;;
37273;SDS011;23161;51.250;5.554;2023-03-02T04:40:13;10.73;;;9.25;;
37273;SDS011;23161;51.250;5.554;2023-03-02T04:42:40;13.25;;;10.80;;
37273;SDS011;23161;51.250;5.554;2023-03-02T04:45:06;14.23;;;11.48;;
37273;SDS011;23161;51.250;5.554;2023-03-02T04:47:32;14.30;;;10.98;;
37273;SDS011;23161;51.250;5.554;2023-03-02T04:49:58;11.23;;;9.90;;
37273;SDS011;23161;51.250;5.554;2023-03-02T04:52:24;10.70;;;9.45;;
37273;SDS011;23161;51.250;5.554;2023-03-02T04:54:50;8.98;;;8.07;;
37273;SDS011;23161;51.250;5.554;2023-03-02T04:57:16;12.57;;;11.45;;
37273;SDS011;23161;51.250;5.554;2023-03-02T04:59:42;10.90;;;9.73;;
37273;SDS011;23161;51.250;5.554;2023-03-02T05:02:08;14.52;;;9.55;;
37273;SDS011;23161;51.250;5.554;2023-03-02T05:04:34;11.38;;;10.15;;
37273;SDS011;23161;51.250;5.554;2023-03-02T05:07:00;10.52;;;9.50;;
37273;SDS011;23161;51.250;5.554;2023-03-02T05:09:26;10.98;;;9.88;;
37273;SDS011;23161;51.250;5.554;2023-03-02T05:11:56;11.13;;;10.13;;
37273;SDS011;23161;51.250;5.554;2023-03-02T05:14:23;10.85;;;9.57;;
37273;SDS011;23161;51.250;5.554;2023-03-02T05:16:50;10.40;;;9.25;;
37273;SDS011;23161;51.250;5.554;2023-03-02T05:19:15;12.25;;;10.20;;
37273;SDS011;23161;51.250;5.554;2023-03-02T05:21:42;12.63;;;10.27;;
37273;SDS011;23161;51.250;5.554;2023-03-02T05:24:09;12.20;;;10.60;;
37273;SDS011;23161;51.250;5.554;2023-03-02T05:26:35;11.05;;;8.95;;
37273;SDS011;23161;51.250;5.554;2023-03-02T05:29:01;12.65;;;9.93;;
37273;SDS011;23161;51.250;5.554;2023-03-02T05:31:40;10.30;;;9.00;;
37273;SDS011;23161;51.250;5.554;2023-03-02T05:34:10;11.02;;;10.00;;
37273;SDS011;23161;51.250;5.554;2023-03-02T05:36:38;16.05;;;9.60;;
37273;SDS011;23161;51.250;5.554;2023-03-02T05:39:05;10.68;;;9.15;;
37273;SDS011;23161;51.250;5.554;2023-03-02T05:41:31;12.85;;;11.20;;
37273;SDS011;23161;51.250;5.554;2023-03-02T05:43:57;11.88;;;9.75;;
37273;SDS011;23161;51.250;5.554;2023-03-02T05:46:23;11.23;;;10.13;;
37273;SDS011;23161;51.250;5.554;2023-03-02T05:48:49;10.95;;;9.73;;
37273;SDS011;23161;51.250;5.554;2023-03-02T05:51:15;12.75;;;9.55;;
37273;SDS011;23161;51.250;5.554;2023-03-02T05:53:41;13.13;;;11.05;;
37273;SDS011;23161;51.250;5.554;2023-03-02T05:56:07;10.82;;;9.73;;
37273;SDS011;23161;51.250;5.554;2023-03-02T05:58:33;10.43;;;9.40;;
37273;SDS011;23161;51.250;5.554;2023-03-02T06:00:59;12.00;;;9.50;;
37273;SDS011;23161;51.250;5.554;2023-03-02T06:03:25;12.35;;;10.07;;
37273;SDS011;23161;51.250;5.554;2023-03-02T06:05:51;16.67;;;11.77;;
37273;SDS011;23161;51.250;5.554;2023-03-02T06:08:18;18.67;;;11.40;;
37273;SDS011;23161;51.250;5.554;2023-03-02T06:10:45;12.10;;;10.85;;
37273;SDS011;23161;51.250;5.554;2023-03-02T06:13:11;13.63;;;10.60;;
37273;SDS011;23161;51.250;5.554;2023-03-02T06:15:37;12.50;;;11.20;;
37273;SDS011;23161;51.250;5.554;2023-03-02T06:18:04;16.63;;;11.40;;
37273;SDS011;23161;51.250;5.554;2023-03-02T06:20:30;13.05;;;11.52;;
37273;SDS011;23161;51.250;5.554;2023-03-02T06:22:57;12.82;;;11.00;;
37273;SDS011;23161;51.250;5.554;2023-03-02T06:25:23;14.32;;;12.23;;
37273;SDS011;23161;51.250;5.554;2023-03-02T06:27:52;13.13;;;11.70;;
37273;SDS011;23161;51.250;5.554;2023-03-02T06:30:22;15.95;;;12.95;;
37273;SDS011;23161;51.250;5.554;2023-03-02T06:32:49;16.05;;;11.48;;
37273;SDS011;23161;51.250;5.554;2023-03-02T06:35:15;12.52;;;11.27;;
37273;SDS011;23161;51.250;5.554;2023-03-02T06:37:41;14.48;;;13.00;;
37273;SDS011;23161;51.250;5.554;2023-03-02T06:40:08;14.73;;;12.55;;
37273;SDS011;23161;51.250;5.554;2023-03-02T06:42:35;16.65;;;13.20;;
37273;SDS011;23161;51.250;5.554;2023-03-02T06:45:02;13.63;;;12.35;;
37273;SDS011;23161;51.250;5.554;2023-03-02T06:47:28;16.40;;;14.70;;
37273;SDS011;23161;51.250;5.554;2023-03-02T06:49:54;15.43;;;13.05;;
37273;SDS011;23161;51.250;5.554;2023-03-02T06:52:20;16.92;;;14.00;;
37273;SDS011;23161;51.250;5.554;2023-03-02T06:54:47;13.82;;;12.35;;
37273;SDS011;23161;51.250;5.554;2023-03-02T06:57:12;16.30;;;12.73;;
37273;SDS011;23161;51.250;5.554;2023-03-02T06:59:38;18.45;;;15.07;;
37273;SDS011;23161;51.250;5.554;2023-03-02T07:02:04;16.35;;;14.40;;
37273;SDS011;23161;51.250;5.554;2023-03-02T07:04:31;16.40;;;14.68;;
37273;SDS011;23161;51.250;5.554;2023-03-02T07:06:56;14.35;;;12.77;;
37273;SDS011;23161;51.250;5.554;2023-03-02T07:09:22;15.32;;;13.55;;
37273;SDS011;23161;51.250;5.554;2023-03-02T07:11:48;16.15;;;14.27;;
37273;SDS011;23161;51.250;5.554;2023-03-02T07:14:14;16.95;;;14.32;;
37273;SDS011;23161;51.250;5.554;2023-03-02T07:16:40;18.58;;;14.85;;
37273;SDS011;23161;51.250;5.554;2023-03-02T07:19:08;25.88;;;23.42;;
37273;SDS011;23161;51.250;5.554;2023-03-02T07:21:36;27.88;;;25.08;;
37273;SDS011;23161;51.250;5.554;2023-03-02T07:24:02;28.20;;;25.35;;
37273;SDS011;23161;51.250;5.554;2023-03-02T07:26:28;20.90;;;18.75;;
37273;SDS011;23161;51.250;5.554;2023-03-02T07:28:54;19.63;;;17.30;;
37273;SDS011;23161;51.250;5.554;2023-03-02T07:31:23;17.65;;;15.82;;
37273;SDS011;23161;51.250;5.554;2023-03-02T07:33:50;22.88;;;19.08;;
37273;SDS011;23161;51.250;5.554;2023-03-02T07:36:16;25.75;;;16.60;;
37273;SDS011;23161;51.250;5.554;2023-03-02T07:38:42;21.63;;;15.00;;
37273;SDS011;23161;51.250;5.554;2023-03-02T07:41:08;18.98;;;16.27;;
37273;SDS011;23161;51.250;5.554;2023-03-02T07:43:35;16.25;;;14.38;;
37273;SDS011;23161;51.250;5.554;2023-03-02T07:46:02;24.92;;;18.88;;
37273;SDS011;23161;51.250;5.554;2023-03-02T07:48:28;21.38;;;15.57;;
37273;SDS011;23161;51.250;5.554;2023-03-02T07:50:59;21.88;;;17.25;;
37273;SDS011;23161;51.250;5.554;2023-03-02T07:53:26;18.58;;;15.40;;
37273;SDS011;23161;51.250;5.554;2023-03-02T07:55:52;19.45;;;14.77;;
37273;SDS011;23161;51.250;5.554;2023-03-02T07:58:18;13.23;;;11.73;;
37273;SDS011;23161;51.250;5.554;2023-03-02T08:00:43;17.15;;;13.73;;
37273;SDS011;23161;51.250;5.554;2023-03-02T08:03:09;16.83;;;11.07;;
37273;SDS011;23161;51.250;5.554;2023-03-02T08:05:35;14.77;;;12.82;;
37273;SDS011;23161;51.250;5.554;2023-03-02T08:08:01;19.45;;;12.60;;
37273;SDS011;23161;51.250;5.554;2023-03-02T08:10:26;18.52;;;12.05;;
37273;SDS011;23161;51.250;5.554;2023-03-02T08:12:52;13.93;;;10.60;;
37273;SDS011;23161;51.250;5.554;2023-03-02T08:15:18;14.23;;;10.80;;
37273;SDS011;23161;51.250;5.554;2023-03-02T08:17:44;13.25;;;11.15;;
37273;SDS011;23161;51.250;5.554;2023-03-02T08:20:10;12.40;;;10.25;;
37273;SDS011;23161;51.250;5.554;2023-03-02T08:22:36;14.27;;;10.82;;
37273;SDS011;23161;51.250;5.554;2023-03-02T08:25:02;15.00;;;11.48;;
37273;SDS011;23161;51.250;5.554;2023-03-02T08:27:28;16.75;;;9.52;;
37273;SDS011;23161;51.250;5.554;2023-03-02T08:29:54;11.18;;;9.43;;
37273;SDS011;23161;51.250;5.554;2023-03-02T08:32:20;14.68;;;9.60;;
37273;SDS011;23161;51.250;5.554;2023-03-02T08:34:46;15.02;;;9.80;;
37273;SDS011;23161;51.250;5.554;2023-03-02T08:37:16;11.20;;;9.88;;
37273;SDS011;23161;51.250;5.554;2023-03-02T08:39:43;19.42;;;11.98;;
37273;SDS011;23161;51.250;5.554;2023-03-02T08:42:08;13.27;;;10.30;;
37273;SDS011;23161;51.250;5.554;2023-03-02T08:44:34;16.55;;;9.57;;
37273;SDS011;23161;51.250;5.554;2023-03-02T08:47:00;11.30;;;8.85;;
37273;SDS011;23161;51.250;5.554;2023-03-02T08:49:26;14.68;;;10.55;;
37273;SDS011;23161;51.250;5.554;2023-03-02T08:51:52;14.23;;;10.20;;
37273;SDS011;23161;51.250;5.554;2023-03-02T08:54:20;11.88;;;7.88;;
37273;SDS011;23161;51.250;5.554;2023-03-02T08:56:47;12.35;;;8.43;;
37273;SDS011;23161;51.250;5.554;2023-03-02T08:59:14;12.43;;;8.75;;
37273;SDS011;23161;51.250;5.554;2023-03-02T09:01:41;10.07;;;7.35;;
37273;SDS011;23161;51.250;5.554;2023-03-02T09:04:07;10.70;;;9.63;;
37273;SDS011;23161;51.250;5.554;2023-03-02T09:06:36;10.15;;;7.90;;
37273;SDS011;23161;51.250;5.554;2023-03-02T09:09:04;10.40;;;9.05;;
37273;SDS011;23161;51.250;5.554;2023-03-02T09:11:31;15.95;;;10.93;;
37273;SDS011;23161;51.250;5.554;2023-03-02T09:13:57;9.90;;;7.78;;
37273;SDS011;23161;51.250;5.554;2023-03-02T09:16:23;14.23;;;9.98;;
37273;SDS011;23161;51.250;5.554;2023-03-02T09:18:50;14.43;;;8.43;;
37273;SDS011;23161;51.250;5.554;2023-03-02T09:21:16;7.03;;;6.30;;
37273;SDS011;23161;51.250;5.554;2023-03-02T09:23:42;9.82;;;7.88;;
37273;SDS011;23161;51.250;5.554;2023-03-02T09:26:07;9.15;;;8.23;;
37273;SDS011;23161;51.250;5.554;2023-03-02T09:28:34;10.65;;;7.70;;
37273;SDS011;23161;51.250;5.554;2023-03-02T09:31:01;9.40;;;6.43;;
37273;SDS011;23161;51.250;5.554;2023-03-02T09:33:29;8.50;;;6.90;;
37273;SDS011;23161;51.250;5.554;2023-03-02T09:35:55;7.47;;;4.85;;
37273;SDS011;23161;51.250;5.554;2023-03-02T09:38:21;7.93;;;6.47;;
37273;SDS011;23161;51.250;5.554;2023-03-02T09:41:05;7.55;;;6.80;;
37273;SDS011;23161;51.250;5.554;2023-03-02T09:43:51;8.30;;;7.30;;
37273;SDS011;23161;51.250;5.554;2023-03-02T09:54:45;10.07;;;7.68;;
37273;SDS011;23161;51.250;5.554;2023-03-02T09:57:21;9.50;;;5.15;;
37273;SDS011;23161;51.250;5.554;2023-03-02T09:59:53;8.85;;;6.30;;
37273;SDS011;23161;51.250;5.554;2023-03-02T10:02:32;13.65;;;7.47;;
37273;SDS011;23161;51.250;5.554;2023-03-02T10:05:03;6.82;;;5.47;;
37273;SDS011;23161;51.250;5.554;2023-03-02T10:15:26;15.90;;;10.23;;
37273;SDS011;23161;51.250;5.554;2023-03-02T10:18:03;7.83;;;6.90;;
37273;SDS011;23161;51.250;5.554;2023-03-02T10:26:07;12.88;;;7.78;;
37273;SDS011;23161;51.250;5.554;2023-03-02T10:28:46;8.95;;;7.93;;
37273;SDS011;23161;51.250;5.554;2023-03-02T10:31:23;13.03;;;9.90;;
37273;SDS011;23161;51.250;5.554;2023-03-02T10:33:55;8.70;;;6.68;;
37273;SDS011;23161;51.250;5.554;2023-03-02T10:36:23;18.35;;;10.10;;
37273;SDS011;23161;51.250;5.554;2023-03-02T10:38:54;10.35;;;8.02;;
37273;SDS011;23161;51.250;5.554;2023-03-02T10:41:23;9.25;;;7.50;;
37273;SDS011;23161;51.250;5.554;2023-03-02T10:44:07;10.68;;;8.65;;
37273;SDS011;23161;51.250;5.554;2023-03-02T10:46:55;11.65;;;8.02;;
37273;SDS011;23161;51.250;5.554;2023-03-02T10:52:08;8.50;;;6.75;;
37273;SDS011;23161;51.250;5.554;2023-03-02T10:54:37;10.88;;;8.45;;
37273;SDS011;23161;51.250;5.554;2023-03-02T10:57:22;9.95;;;7.68;;
37273;SDS011;23161;51.250;5.554;2023-03-02T11:00:23;15.05;;;7.70;;
37273;SDS011;23161;51.250;5.554;2023-03-02T11:05:22;10.02;;;6.97;;
37273;SDS011;23161;51.250;5.554;2023-03-02T11:10:22;10.10;;;7.97;;
37273;SDS011;23161;51.250;5.554;2023-03-02T11:12:51;10.23;;;7.47;;
37273;SDS011;23161;51.250;5.554;2023-03-02T11:15:20;7.88;;;7.03;;
37273;SDS011;23161;51.250;5.554;2023-03-02T11:18:00;13.70;;;9.52;;
37273;SDS011;23161;51.250;5.554;2023-03-02T11:20:40;10.10;;;8.75;;
37273;SDS011;23161;51.250;5.554;2023-03-02T11:23:17;7.75;;;6.55;;
37273;SDS011;23161;51.250;5.554;2023-03-02T11:25:56;14.00;;;7.35;;
37273;SDS011;23161;51.250;5.554;2023-03-02T11:28:46;9.45;;;7.80;;
37273;SDS011;23161;51.250;5.554;2023-03-02T11:31:21;12.70;;;8.00;;
37273;SDS011;23161;51.250;5.554;2023-03-02T11:33:58;10.73;;;8.35;;
37273;SDS011;23161;51.250;5.554;2023-03-02T11:39:30;11.25;;;7.05;;
37273;SDS011;23161;51.250;5.554;2023-03-02T11:42:07;9.43;;;7.22;;
37273;SDS011;23161;51.250;5.554;2023-03-02T11:44:44;9.50;;;8.02;;
37273;SDS011;23161;51.250;5.554;2023-03-02T11:47:10;9.43;;;6.95;;
37273;SDS011;23161;51.250;5.554;2023-03-02T11:49:38;12.73;;;6.80;;
37273;SDS011;23161;51.250;5.554;2023-03-02T11:52:15;11.88;;;9.32;;
37273;SDS011;23161;51.250;5.554;2023-03-02T11:54:58;7.93;;;6.68;;
37273;SDS011;23161;51.250;5.554;2023-03-02T11:57:32;7.53;;;6.65;;
37273;SDS011;23161;51.250;5.554;2023-03-02T12:02:56;13.80;;;9.27;;
37273;SDS011;23161;51.250;5.554;2023-03-02T12:05:25;16.25;;;8.75;;
37273;SDS011;23161;51.250;5.554;2023-03-02T12:07:57;18.43;;;10.37;;
37273;SDS011;23161;51.250;5.554;2023-03-02T12:13:36;16.92;;;9.82;;
37273;SDS011;23161;51.250;5.554;2023-03-02T12:16:49;13.32;;;7.28;;
37273;SDS011;23161;51.250;5.554;2023-03-02T12:21:45;14.38;;;7.60;;
37273;SDS011;23161;51.250;5.554;2023-03-02T12:24:30;10.40;;;7.30;;
37273;SDS011;23161;51.250;5.554;2023-03-02T12:27:06;10.77;;;8.32;;
37273;SDS011;23161;51.250;5.554;2023-03-02T12:35:16;12.20;;;7.30;;
37273;SDS011;23161;51.250;5.554;2023-03-02T12:37:46;9.18;;;7.28;;
37273;SDS011;23161;51.250;5.554;2023-03-02T12:43:28;9.25;;;7.00;;
37273;SDS011;23161;51.250;5.554;2023-03-02T12:54:19;13.18;;;8.70;;
37273;SDS011;23161;51.250;5.554;2023-03-02T12:57:11;11.10;;;7.03;;
37273;SDS011;23161;51.250;5.554;2023-03-02T12:59:39;14.65;;;8.27;;
37273;SDS011;23161;51.250;5.554;2023-03-02T13:02:13;16.63;;;9.18;;
37273;SDS011;23161;51.250;5.554;2023-03-02T13:04:51;18.90;;;8.13;;
37273;SDS011;23161;51.250;5.554;2023-03-02T13:07:22;11.20;;;8.25;;
37273;SDS011;23161;51.250;5.554;2023-03-02T13:09:50;14.57;;;8.23;;
37273;SDS011;23161;51.250;5.554;2023-03-02T13:12:18;9.82;;;8.85;;
37273;SDS011;23161;51.250;5.554;2023-03-02T13:14:46;17.20;;;9.27;;
37273;SDS011;23161;51.250;5.554;2023-03-02T13:17:21;11.85;;;10.00;;
37273;SDS011;23161;51.250;5.554;2023-03-02T13:19:55;11.55;;;9.00;;
37273;SDS011;23161;51.250;5.554;2023-03-02T13:22:27;11.15;;;9.40;;
37273;SDS011;23161;51.250;5.554;2023-03-02T13:27:26;14.80;;;9.30;;
37273;SDS011;23161;51.250;5.554;2023-03-02T13:29:53;10.13;;;9.00;;
37273;SDS011;23161;51.250;5.554;2023-03-02T13:32:26;10.65;;;8.95;;
37273;SDS011;23161;51.250;5.554;2023-03-02T13:34:59;10.27;;;9.02;;
37273;SDS011;23161;51.250;5.554;2023-03-02T13:39:53;10.75;;;8.57;;
37273;SDS011;23161;51.250;5.554;2023-03-02T13:42:25;14.43;;;9.82;;
37273;SDS011;23161;51.250;5.554;2023-03-02T13:45:07;13.13;;;9.50;;
37273;SDS011;23161;51.250;5.554;2023-03-02T13:47:53;12.38;;;8.10;;
37273;SDS011;23161;51.250;5.554;2023-03-02T13:50:21;8.60;;;7.25;;
37273;SDS011;23161;51.250;5.554;2023-03-02T13:52:50;12.40;;;9.50;;
37273;SDS011;23161;51.250;5.554;2023-03-02T13:55:20;13.52;;;8.18;;
37273;SDS011;23161;51.250;5.554;2023-03-02T13:57:47;11.70;;;8.95;;
37273;SDS011;23161;51.250;5.554;2023-03-02T14:00:16;14.48;;;10.10;;
37273;SDS011;23161;51.250;5.554;2023-03-02T14:02:45;11.15;;;7.65;;
37273;SDS011;23161;51.250;5.554;2023-03-02T14:05:22;13.57;;;8.90;;
37273;SDS011;23161;51.250;5.554;2023-03-02T14:07:51;11.85;;;9.07;;
37273;SDS011;23161;51.250;5.554;2023-03-02T14:10:18;11.18;;;8.27;;
37273;SDS011;23161;51.250;5.554;2023-03-02T14:15:42;7.78;;;6.00;;
37273;SDS011;23161;51.250;5.554;2023-03-02T14:18:54;12.90;;;8.50;;
37273;SDS011;23161;51.250;5.554;2023-03-02T14:21:15;8.57;;;7.55;;
37273;SDS011;23161;51.250;5.554;2023-03-02T14:23:43;12.20;;;7.13;;
37273;SDS011;23161;51.250;5.554;2023-03-02T14:28:54;9.65;;;8.25;;
37273;SDS011;23161;51.250;5.554;2023-03-02T14:31:20;11.52;;;9.57;;
37273;SDS011;23161;51.250;5.554;2023-03-02T14:33:49;8.57;;;7.78;;
37273;SDS011;23161;51.250;5.554;2023-03-02T14:36:17;12.82;;;8.18;;
37273;SDS011;23161;51.250;5.554;2023-03-02T14:38:48;7.57;;;5.70;;
37273;SDS011;23161;51.250;5.554;2023-03-02T14:41:19;7.25;;;6.28;;
37273;SDS011;23161;51.250;5.554;2023-03-02T14:43:47;11.82;;;9.40;;
37273;SDS011;23161;51.250;5.554;2023-03-02T14:46:13;9.63;;;8.35;;
37273;SDS011;23161;51.250;5.554;2023-03-02T14:48:39;7.93;;;7.07;;
37273;SDS011;23161;51.250;5.554;2023-03-02T14:51:14;9.00;;;7.90;;
37273;SDS011;23161;51.250;5.554;2023-03-02T14:56:13;8.82;;;7.00;;
37273;SDS011;23161;51.250;5.554;2023-03-02T14:58:42;8.77;;;7.35;;
37273;SDS011;23161;51.250;5.554;2023-03-02T15:01:08;8.27;;;6.35;;
37273;SDS011;23161;51.250;5.554;2023-03-02T15:03:35;5.85;;;5.25;;
37273;SDS011;23161;51.250;5.554;2023-03-02T15:06:01;11.82;;;7.38;;
37273;SDS011;23161;51.250;5.554;2023-03-02T15:08:27;7.00;;;5.20;;
37273;SDS011;23161;51.250;5.554;2023-03-02T15:10:54;12.88;;;6.85;;
37273;SDS011;23161;51.250;5.554;2023-03-02T15:13:20;13.18;;;6.63;;
37273;SDS011;23161;51.250;5.554;2023-03-02T15:15:46;6.47;;;5.85;;
37273;SDS011;23161;51.250;5.554;2023-03-02T15:18:12;8.00;;;7.30;;
37273;SDS011;23161;51.250;5.554;2023-03-02T15:20:43;8.85;;;7.15;;
37273;SDS011;23161;51.250;5.554;2023-03-02T15:23:09;7.57;;;6.75;;
37273;SDS011;23161;51.250;5.554;2023-03-02T15:25:35;10.18;;;6.97;;
37273;SDS011;23161;51.250;5.554;2023-03-02T15:28:01;11.07;;;7.60;;
37273;SDS011;23161;51.250;5.554;2023-03-02T15:30:26;9.30;;;8.43;;
37273;SDS011;23161;51.250;5.554;2023-03-02T15:32:55;8.90;;;6.63;;
37273;SDS011;23161;51.250;5.554;2023-03-02T15:35:23;7.15;;;6.40;;
37273;SDS011;23161;51.250;5.554;2023-03-02T15:37:50;9.65;;;6.25;;
37273;SDS011;23161;51.250;5.554;2023-03-02T15:40:17;10.05;;;5.57;;
37273;SDS011;23161;51.250;5.554;2023-03-02T15:42:43;7.35;;;5.40;;
37273;SDS011;23161;51.250;5.554;2023-03-02T15:45:09;7.93;;;6.43;;
37273;SDS011;23161;51.250;5.554;2023-03-02T15:47:35;8.45;;;7.35;;
37273;SDS011;23161;51.250;5.554;2023-03-02T15:50:02;9.40;;;7.60;;
37273;SDS011;23161;51.250;5.554;2023-03-02T15:52:29;8.27;;;6.25;;
37273;SDS011;23161;51.250;5.554;2023-03-02T15:54:55;16.73;;;11.05;;
37273;SDS011;23161;51.250;5.554;2023-03-02T15:57:20;12.35;;;9.43;;
37273;SDS011;23161;51.250;5.554;2023-03-02T15:59:46;7.72;;;6.88;;
37273;SDS011;23161;51.250;5.554;2023-03-02T16:02:12;11.57;;;6.78;;
37273;SDS011;23161;51.250;5.554;2023-03-02T16:04:39;16.98;;;9.85;;
37273;SDS011;23161;51.250;5.554;2023-03-02T16:07:05;16.42;;;9.63;;
37273;SDS011;23161;51.250;5.554;2023-03-02T16:09:31;11.65;;;8.07;;
37273;SDS011;23161;51.250;5.554;2023-03-02T16:11:57;8.70;;;7.63;;
37273;SDS011;23161;51.250;5.554;2023-03-02T16:14:23;8.27;;;6.40;;
37273;SDS011;23161;51.250;5.554;2023-03-02T16:16:49;10.32;;;7.38;;